KADG/ADG METAR and TAF weather

Enter ICAO airport designator
Station Type Date Time Source
KADG METAR 2022/01/29 13:53 UTC NOAA

KADG 291353Z AUTO 00000KT 10SM FEW044 BKN080 M21/M22 A3025 RMK AO2 SLP267 T12111217


Station Type Date Time Source
KADG Decoded METAR 2022/01/29 13:53 UTC NOAA

ADRIAN LENAWEE COUNTY AIRPORT, MI, United States (KADG) 41-52N 84-05W 241M
Jan 29, 2022 - 08:53 AM EST / 2022.01.29 1353 UTC
Wind: Calm:0
Visibility: 10 mile(s):0
Sky conditions: mostly cloudy
Temperature: -6.0 F (-21.1 C)
Dew Point: -7.1 F (-21.7 C)
Relative Humidity: 94%
Pressure (altimeter): 30.25 in. Hg (1024 hPa)
ob: KADG 291353Z AUTO 00000KT 10SM FEW044 BKN080 M21/M22 A3025 RMK AO2 SLP267 T12111217
cycle: 14

Station Type Date Time Source
KADG TAF UTC NOAA

Error!

Example: see airport list